RYR4QQ LFOB-LICC
Flight info
| Callsign | RYR4QQ |
|---|---|
| Flight time | 2h 19m |
| Altitude | 37000 |
| Route | LANVI DCT DEVDI DCT ODINA DCT DESIP DCT EKPAL DCT OST DCT AMANO DCT VAKOR DCT PELEN DCT UXUTA |
| Aircraft | A320/M-SDE2FGHIJ1RWY/SB1 |
Departure
| Time | 2026-05-07 12:19 |
|---|---|
| Airport | Beauvais-Tillé airport (LFOB) |
Arrival
| Time | 2026-05-07 14:38 |
|---|---|
| Airport | Catania-Fontanarossa Airport (LICC) |
| Time | Latitude | Longitude | Altitude | Speed | Heading |
|---|---|---|---|---|---|
| 2026-05-07 11:58 | 49.45829 | 2.11118 | 351 ft | 0 kts | 33° |
| 2026-05-07 12:12 | 49.45828 | 2.11117 | 351 ft | 0 kts | 33° |
| 2026-05-07 12:12 | 49.45818 | 2.11106 | 350 ft | 2 kts | 33° |
| 2026-05-07 12:13 | 49.45805 | 2.11094 | 350 ft | 2 kts | 33° |
| 2026-05-07 12:13 | 49.45795 | 2.11083 | 350 ft | 0 kts | 33° |
| 2026-05-07 12:13 | 49.45784 | 2.11075 | 350 ft | 2 kts | 0° |
| 2026-05-07 12:13 | 49.45770 | 2.11082 | 350 ft | 2 kts | 318° |
| 2026-05-07 12:14 | 49.45765 | 2.11090 | 350 ft | 1 kts | 296° |
| 2026-05-07 12:14 | 49.45763 | 2.11097 | 349 ft | 0 kts | 303° |
| 2026-05-07 12:16 | 49.45768 | 2.11084 | 349 ft | 3 kts | 303° |
| 2026-05-07 12:16 | 49.45787 | 2.11040 | 350 ft | 5 kts | 303° |
| 2026-05-07 12:16 | 49.45782 | 2.10989 | 350 ft | 6 kts | 223° |
| 2026-05-07 12:16 | 49.45724 | 2.10936 | 350 ft | 15 kts | 206° |
| 2026-05-07 12:17 | 49.45643 | 2.10869 | 350 ft | 5 kts | 204° |
| 2026-05-07 12:17 | 49.45610 | 2.10896 | 349 ft | 2 kts | 122° |
| 2026-05-07 12:17 | 49.45609 | 2.10899 | 349 ft | 0 kts | 123° |
| 2026-05-07 12:18 | 49.45582 | 2.10961 | 349 ft | 29 kts | 123° |
| 2026-05-07 12:18 | 49.45337 | 2.11532 | 343 ft | 98 kts | 124° |
| 2026-05-07 12:18 | 49.44833 | 2.12678 | 319 ft | 156 kts | 121° |
| 2026-05-07 12:19 | 49.44279 | 2.14081 | 790 ft | 157 kts | 106° |
| 2026-05-07 12:19 | 49.44177 | 2.15740 | 1351 ft | 157 kts | 85° |
| 2026-05-07 12:19 | 49.44262 | 2.17402 | 1948 ft | 158 kts | 83° |
| 2026-05-07 12:19 | 49.44340 | 2.18834 | 2372 ft | 156 kts | 84° |
| 2026-05-07 12:20 | 49.44351 | 2.19068 | 2433 ft | 156 kts | 84° |
| 2026-05-07 12:20 | 49.44399 | 2.20194 | 2726 ft | 157 kts | 85° |
| 2026-05-07 12:20 | 49.44455 | 2.21868 | 3147 ft | 159 kts | 86° |
| 2026-05-07 12:20 | 49.44500 | 2.23609 | 3479 ft | 169 kts | 86° |
| 2026-05-07 12:21 | 49.44542 | 2.25499 | 3750 ft | 185 kts | 87° |
| 2026-05-07 12:21 | 49.44582 | 2.27566 | 4056 ft | 201 kts | 87° |
| 2026-05-07 12:21 | 49.44624 | 2.29843 | 4348 ft | 222 kts | 88° |
| 2026-05-07 12:21 | 49.44667 | 2.32316 | 4744 ft | 240 kts | 88° |
| 2026-05-07 12:22 | 49.44660 | 2.34950 | 5147 ft | 258 kts | 96° |
| 2026-05-07 12:22 | 49.44198 | 2.37664 | 5762 ft | 267 kts | 114° |
| 2026-05-07 12:22 | 49.43341 | 2.40163 | 6558 ft | 269 kts | 118° |
| 2026-05-07 12:22 | 49.42419 | 2.42658 | 7314 ft | 272 kts | 119° |
| 2026-05-07 12:23 | 49.41479 | 2.45183 | 8036 ft | 276 kts | 119° |
| 2026-05-07 12:23 | 49.40522 | 2.47753 | 8737 ft | 280 kts | 120° |
| 2026-05-07 12:23 | 49.39563 | 2.50332 | 9402 ft | 284 kts | 120° |
| 2026-05-07 12:23 | 49.38575 | 2.52990 | 10060 ft | 288 kts | 120° |
| 2026-05-07 12:24 | 49.37581 | 2.55661 | 10560 ft | 297 kts | 120° |
| 2026-05-07 12:24 | 49.36518 | 2.58513 | 10858 ft | 314 kts | 120° |
| 2026-05-07 12:24 | 49.35408 | 2.61491 | 11170 ft | 328 kts | 120° |
| 2026-05-07 12:24 | 49.34275 | 2.64531 | 11702 ft | 334 kts | 120° |
| 2026-05-07 12:25 | 49.33108 | 2.67664 | 12333 ft | 337 kts | 121° |
| 2026-05-07 12:25 | 49.31929 | 2.70822 | 12938 ft | 340 kts | 121° |
| 2026-05-07 12:25 | 49.30764 | 2.73939 | 13510 ft | 343 kts | 121° |
| 2026-05-07 12:25 | 49.29581 | 2.77098 | 14071 ft | 346 kts | 121° |
| 2026-05-07 12:26 | 49.28390 | 2.80274 | 14620 ft | 349 kts | 121° |
| 2026-05-07 12:26 | 49.27189 | 2.83477 | 15154 ft | 352 kts | 121° |
| 2026-05-07 12:26 | 49.25967 | 2.86734 | 15679 ft | 355 kts | 121° |
| 2026-05-07 12:26 | 49.24726 | 2.90034 | 16209 ft | 358 kts | 121° |
| 2026-05-07 12:27 | 49.23469 | 2.93374 | 16726 ft | 361 kts | 121° |
| 2026-05-07 12:27 | 49.22223 | 2.96678 | 17223 ft | 363 kts | 121° |
| 2026-05-07 12:27 | 49.20944 | 3.00066 | 17728 ft | 366 kts | 121° |
| 2026-05-07 12:27 | 49.19655 | 3.03446 | 18206 ft | 369 kts | 122° |
| 2026-05-07 12:28 | 49.18251 | 3.06732 | 18676 ft | 371 kts | 126° |
| 2026-05-07 12:28 | 49.16706 | 3.09895 | 19141 ft | 373 kts | 128° |
| 2026-05-07 12:28 | 49.15129 | 3.13019 | 19595 ft | 376 kts | 128° |
| 2026-05-07 12:28 | 49.13502 | 3.16232 | 20044 ft | 379 kts | 128° |
| 2026-05-07 12:29 | 49.11882 | 3.19431 | 20472 ft | 382 kts | 128° |
| 2026-05-07 12:29 | 49.10255 | 3.22642 | 20895 ft | 385 kts | 128° |
| 2026-05-07 12:29 | 49.08617 | 3.25875 | 21313 ft | 388 kts | 128° |
| 2026-05-07 12:29 | 49.06976 | 3.29113 | 21721 ft | 390 kts | 128° |
| 2026-05-07 12:30 | 49.05318 | 3.32378 | 22139 ft | 392 kts | 128° |
| 2026-05-07 12:30 | 49.03639 | 3.35685 | 22552 ft | 394 kts | 128° |
| 2026-05-07 12:30 | 49.01949 | 3.39005 | 22950 ft | 396 kts | 128° |
| 2026-05-07 12:30 | 49.00254 | 3.42329 | 23350 ft | 398 kts | 128° |
| 2026-05-07 12:31 | 48.98550 | 3.45668 | 23749 ft | 400 kts | 128° |
| 2026-05-07 12:31 | 48.96860 | 3.48976 | 24131 ft | 402 kts | 128° |
| 2026-05-07 12:31 | 48.95215 | 3.52434 | 24482 ft | 405 kts | 121° |
| 2026-05-07 12:31 | 48.94041 | 3.56341 | 24810 ft | 409 kts | 108° |
| 2026-05-07 12:32 | 48.93439 | 3.60602 | 25148 ft | 412 kts | 96° |
| 2026-05-07 12:32 | 48.93056 | 3.64884 | 25471 ft | 414 kts | 104° |
| 2026-05-07 12:32 | 48.92061 | 3.69012 | 25787 ft | 415 kts | 116° |
| 2026-05-07 12:32 | 48.90808 | 3.72968 | 26137 ft | 417 kts | 117° |
| 2026-05-07 12:33 | 48.88271 | 3.81032 | 26786 ft | 421 kts | 116° |
| 2026-05-07 12:33 | 48.87045 | 3.85119 | 27108 ft | 423 kts | 115° |
| 2026-05-07 12:33 | 48.85847 | 3.89201 | 27408 ft | 425 kts | 115° |
| 2026-05-07 12:34 | 48.84655 | 3.93313 | 27702 ft | 427 kts | 114° |
| 2026-05-07 12:34 | 48.83465 | 3.97448 | 27990 ft | 429 kts | 114° |
| 2026-05-07 12:34 | 48.82274 | 4.01600 | 28267 ft | 431 kts | 114° |
| 2026-05-07 12:34 | 48.81075 | 4.05779 | 28550 ft | 433 kts | 114° |
| 2026-05-07 12:35 | 48.79872 | 4.09976 | 28831 ft | 435 kts | 114° |
| 2026-05-07 12:35 | 48.78669 | 4.14168 | 29095 ft | 436 kts | 114° |
| 2026-05-07 12:35 | 48.77308 | 4.18907 | 29376 ft | 439 kts | 114° |
| 2026-05-07 12:36 | 48.76083 | 4.23163 | 29640 ft | 440 kts | 114° |
| 2026-05-07 12:36 | 48.74866 | 4.27386 | 29894 ft | 442 kts | 114° |
| 2026-05-07 12:36 | 48.73625 | 4.31686 | 30148 ft | 444 kts | 114° |
| 2026-05-07 12:36 | 48.72382 | 4.35990 | 30372 ft | 446 kts | 113° |
| 2026-05-07 12:37 | 48.71144 | 4.40264 | 30602 ft | 447 kts | 114° |
| 2026-05-07 12:37 | 48.69897 | 4.44567 | 30895 ft | 447 kts | 114° |
| 2026-05-07 12:37 | 48.68640 | 4.48893 | 31186 ft | 447 kts | 114° |
| 2026-05-07 12:37 | 48.67392 | 4.53178 | 31470 ft | 446 kts | 114° |
| 2026-05-07 12:38 | 48.66145 | 4.57456 | 31730 ft | 446 kts | 114° |
| 2026-05-07 12:38 | 48.64883 | 4.61776 | 31976 ft | 446 kts | 114° |
| 2026-05-07 12:38 | 48.63634 | 4.66042 | 32218 ft | 446 kts | 114° |
| 2026-05-07 12:38 | 48.62371 | 4.70347 | 32464 ft | 446 kts | 114° |
| 2026-05-07 12:39 | 48.61102 | 4.74667 | 32698 ft | 446 kts | 114° |
| 2026-05-07 12:39 | 48.59851 | 4.78919 | 32910 ft | 446 kts | 114° |
| 2026-05-07 12:39 | 48.58591 | 4.83193 | 33121 ft | 447 kts | 114° |
| 2026-05-07 12:39 | 48.57320 | 4.87497 | 33326 ft | 447 kts | 114° |
| 2026-05-07 12:40 | 48.56050 | 4.91789 | 33538 ft | 447 kts | 114° |
| 2026-05-07 12:40 | 48.54795 | 4.96026 | 33752 ft | 447 kts | 114° |
| 2026-05-07 12:40 | 48.53512 | 5.00349 | 33957 ft | 447 kts | 114° |
| 2026-05-07 12:40 | 48.52243 | 5.04615 | 34151 ft | 447 kts | 114° |
| 2026-05-07 12:41 | 48.50972 | 5.08885 | 34349 ft | 448 kts | 114° |
| 2026-05-07 12:41 | 48.49704 | 5.13138 | 34545 ft | 448 kts | 114° |
| 2026-05-07 12:41 | 48.48418 | 5.17439 | 34709 ft | 448 kts | 114° |
| 2026-05-07 12:41 | 48.47145 | 5.21692 | 34858 ft | 448 kts | 114° |
| 2026-05-07 12:42 | 48.45862 | 5.25972 | 35010 ft | 448 kts | 114° |
| 2026-05-07 12:42 | 48.44591 | 5.30205 | 35172 ft | 448 kts | 114° |
| 2026-05-07 12:42 | 48.43294 | 5.34516 | 35326 ft | 448 kts | 114° |
| 2026-05-07 12:42 | 48.42012 | 5.38766 | 35443 ft | 448 kts | 114° |
| 2026-05-07 12:43 | 48.40730 | 5.43009 | 35564 ft | 449 kts | 114° |
| 2026-05-07 12:43 | 48.39427 | 5.47317 | 35669 ft | 450 kts | 115° |
| 2026-05-07 12:43 | 48.38140 | 5.51563 | 35785 ft | 451 kts | 115° |
| 2026-05-07 12:43 | 48.36829 | 5.55880 | 35888 ft | 451 kts | 115° |
| 2026-05-07 12:44 | 48.35531 | 5.60147 | 35998 ft | 452 kts | 115° |
| 2026-05-07 12:44 | 48.34219 | 5.64453 | 36104 ft | 452 kts | 115° |
| 2026-05-07 12:44 | 48.32913 | 5.68733 | 36212 ft | 452 kts | 115° |
| 2026-05-07 12:44 | 48.31594 | 5.73048 | 36299 ft | 453 kts | 116° |
| 2026-05-07 12:45 | 48.28937 | 5.81715 | 36470 ft | 455 kts | 116° |
| 2026-05-07 12:45 | 48.26297 | 5.90299 | 36638 ft | 456 kts | 116° |
| 2026-05-07 12:46 | 48.23620 | 5.98973 | 36816 ft | 456 kts | 116° |
| 2026-05-07 12:46 | 48.20961 | 6.07561 | 36971 ft | 457 kts | 116° |
| 2026-05-07 12:47 | 48.18260 | 6.16251 | 37010 ft | 459 kts | 116° |
| 2026-05-07 12:47 | 48.15567 | 6.24885 | 37000 ft | 459 kts | 116° |
| 2026-05-07 12:48 | 48.12842 | 6.33592 | 37005 ft | 460 kts | 116° |
| 2026-05-07 12:48 | 48.10144 | 6.42181 | 37003 ft | 460 kts | 116° |
| 2026-05-07 12:49 | 48.07408 | 6.50864 | 37001 ft | 461 kts | 116° |
| 2026-05-07 12:49 | 48.04672 | 6.59513 | 37005 ft | 461 kts | 116° |
| 2026-05-07 12:50 | 48.01923 | 6.68179 | 37009 ft | 461 kts | 117° |
| 2026-05-07 12:50 | 47.99161 | 6.76853 | 36999 ft | 460 kts | 117° |
| 2026-05-07 12:51 | 47.96402 | 6.85491 | 36991 ft | 460 kts | 117° |
| 2026-05-07 12:51 | 47.93647 | 6.94082 | 36982 ft | 460 kts | 117° |
| 2026-05-07 12:52 | 47.90858 | 7.02748 | 36976 ft | 461 kts | 117° |
| 2026-05-07 12:52 | 47.88086 | 7.11338 | 36979 ft | 462 kts | 117° |
| 2026-05-07 12:53 | 47.85288 | 7.19979 | 36979 ft | 462 kts | 117° |
| 2026-05-07 12:53 | 47.82505 | 7.28546 | 36987 ft | 463 kts | 117° |
| 2026-05-07 12:54 | 47.79694 | 7.37167 | 36987 ft | 463 kts | 117° |
| 2026-05-07 12:54 | 47.76743 | 7.45710 | 36991 ft | 461 kts | 123° |
| 2026-05-07 12:55 | 47.72716 | 7.53174 | 36991 ft | 457 kts | 138° |
| 2026-05-07 12:55 | 47.67745 | 7.58908 | 37005 ft | 452 kts | 151° |
| 2026-05-07 12:56 | 47.62096 | 7.63138 | 37009 ft | 450 kts | 157° |
| 2026-05-07 12:56 | 47.56382 | 7.67103 | 37008 ft | 451 kts | 158° |
| 2026-05-07 12:57 | 47.50711 | 7.71051 | 37008 ft | 451 kts | 158° |
| 2026-05-07 12:57 | 47.45035 | 7.75010 | 37006 ft | 452 kts | 158° |
| 2026-05-07 12:58 | 47.39342 | 7.78979 | 37000 ft | 451 kts | 158° |
| 2026-05-07 12:58 | 47.33642 | 7.82947 | 37002 ft | 451 kts | 158° |
| 2026-05-07 12:59 | 47.28004 | 7.86861 | 36998 ft | 451 kts | 158° |
| 2026-05-07 12:59 | 47.22314 | 7.90805 | 37000 ft | 451 kts | 158° |
| 2026-05-07 13:00 | 47.16627 | 7.94738 | 37005 ft | 451 kts | 158° |
| 2026-05-07 13:00 | 47.10925 | 7.98671 | 37008 ft | 451 kts | 158° |
| 2026-05-07 13:01 | 47.05249 | 8.02576 | 37009 ft | 452 kts | 158° |
| 2026-05-07 13:01 | 46.99500 | 8.06523 | 37010 ft | 452 kts | 158° |
| 2026-05-07 13:02 | 46.93788 | 8.10434 | 37015 ft | 452 kts | 158° |
| 2026-05-07 13:02 | 46.88043 | 8.14359 | 37018 ft | 452 kts | 159° |
| 2026-05-07 13:03 | 46.82296 | 8.18276 | 37019 ft | 452 kts | 159° |
| 2026-05-07 13:03 | 46.76598 | 8.22150 | 37029 ft | 452 kts | 159° |
| 2026-05-07 13:04 | 46.70901 | 8.26015 | 37036 ft | 452 kts | 159° |
| 2026-05-07 13:04 | 46.65177 | 8.29889 | 37039 ft | 452 kts | 159° |
| 2026-05-07 13:05 | 46.59472 | 8.33741 | 37032 ft | 452 kts | 159° |
| 2026-05-07 13:05 | 46.53786 | 8.37572 | 37029 ft | 452 kts | 159° |
| 2026-05-07 13:06 | 46.48031 | 8.41441 | 37011 ft | 452 kts | 159° |
| 2026-05-07 13:06 | 46.42326 | 8.45265 | 37002 ft | 452 kts | 159° |
| 2026-05-07 13:07 | 46.36622 | 8.49080 | 37008 ft | 452 kts | 159° |
| 2026-05-07 13:07 | 46.30891 | 8.52907 | 37015 ft | 452 kts | 159° |
| 2026-05-07 13:08 | 46.25196 | 8.56701 | 37015 ft | 452 kts | 159° |
| 2026-05-07 13:08 | 46.19484 | 8.60498 | 37024 ft | 452 kts | 159° |
| 2026-05-07 13:09 | 46.13737 | 8.64333 | 37027 ft | 453 kts | 158° |
| 2026-05-07 13:09 | 46.08261 | 8.68751 | 37021 ft | 456 kts | 152° |
| 2026-05-07 13:10 | 46.03033 | 8.73957 | 37007 ft | 458 kts | 149° |
| 2026-05-07 13:10 | 45.97825 | 8.79239 | 36869 ft | 458 kts | 149° |
| 2026-05-07 13:11 | 45.92607 | 8.84507 | 36970 ft | 459 kts | 149° |
| 2026-05-07 13:11 | 45.87429 | 8.89719 | 36983 ft | 459 kts | 149° |
| 2026-05-07 13:12 | 45.82159 | 8.95014 | 36992 ft | 459 kts | 149° |
| 2026-05-07 13:12 | 45.76919 | 9.00265 | 36978 ft | 459 kts | 150° |
| 2026-05-07 13:13 | 45.71690 | 9.05493 | 36994 ft | 459 kts | 150° |
| 2026-05-07 13:13 | 45.66457 | 9.10711 | 36993 ft | 459 kts | 150° |
| 2026-05-07 13:14 | 45.61114 | 9.15743 | 36985 ft | 457 kts | 152° |
| 2026-05-07 13:14 | 45.55745 | 9.20633 | 36986 ft | 457 kts | 153° |
| 2026-05-07 13:15 | 45.50385 | 9.25508 | 36981 ft | 458 kts | 153° |
| 2026-05-07 13:15 | 45.45002 | 9.30396 | 36987 ft | 458 kts | 153° |
| 2026-05-07 13:16 | 45.39645 | 9.35248 | 36973 ft | 457 kts | 153° |
| 2026-05-07 13:16 | 45.34259 | 9.40115 | 36976 ft | 458 kts | 153° |
| 2026-05-07 13:17 | 45.28888 | 9.44959 | 36969 ft | 457 kts | 153° |
| 2026-05-07 13:17 | 45.23516 | 9.49794 | 36968 ft | 458 kts | 153° |
| 2026-05-07 13:18 | 45.18099 | 9.54656 | 36974 ft | 457 kts | 153° |
| 2026-05-07 13:18 | 45.12727 | 9.59467 | 36974 ft | 457 kts | 153° |
| 2026-05-07 13:19 | 45.07349 | 9.64272 | 36971 ft | 457 kts | 153° |
| 2026-05-07 13:19 | 45.01929 | 9.69103 | 36955 ft | 456 kts | 154° |
| 2026-05-07 13:20 | 44.96522 | 9.73914 | 36960 ft | 456 kts | 154° |
| 2026-05-07 13:20 | 44.91142 | 9.78687 | 36963 ft | 457 kts | 154° |
| 2026-05-07 13:21 | 44.85758 | 9.83455 | 36972 ft | 457 kts | 154° |
| 2026-05-07 13:21 | 44.80353 | 9.88232 | 36975 ft | 457 kts | 154° |
| 2026-05-07 13:22 | 44.74992 | 9.92959 | 36988 ft | 457 kts | 154° |
| 2026-05-07 13:22 | 44.69587 | 9.97714 | 36990 ft | 455 kts | 154° |
| 2026-05-07 13:23 | 44.64194 | 10.02448 | 36994 ft | 456 kts | 154° |
| 2026-05-07 13:23 | 44.58798 | 10.07175 | 36990 ft | 456 kts | 154° |
| 2026-05-07 13:24 | 44.53418 | 10.11878 | 36990 ft | 456 kts | 154° |
| 2026-05-07 13:24 | 44.48023 | 10.16579 | 36984 ft | 456 kts | 155° |
| 2026-05-07 13:25 | 44.42564 | 10.21054 | 36995 ft | 454 kts | 156° |
| 2026-05-07 13:25 | 44.37096 | 10.25459 | 37001 ft | 453 kts | 156° |
| 2026-05-07 13:26 | 44.31665 | 10.29842 | 37001 ft | 453 kts | 156° |
| 2026-05-07 13:26 | 44.26186 | 10.34265 | 37007 ft | 453 kts | 156° |
| 2026-05-07 13:27 | 44.20706 | 10.38686 | 36998 ft | 453 kts | 156° |
| 2026-05-07 13:27 | 44.15236 | 10.43088 | 37011 ft | 454 kts | 156° |
| 2026-05-07 13:28 | 44.09801 | 10.47457 | 37006 ft | 453 kts | 156° |
| 2026-05-07 13:28 | 44.04336 | 10.51835 | 37015 ft | 453 kts | 156° |
| 2026-05-07 13:29 | 43.98842 | 10.56230 | 37016 ft | 453 kts | 156° |
| 2026-05-07 13:29 | 43.93376 | 10.60596 | 37011 ft | 453 kts | 157° |
| 2026-05-07 13:30 | 43.87898 | 10.64958 | 37008 ft | 454 kts | 157° |
| 2026-05-07 13:30 | 43.82386 | 10.69339 | 36998 ft | 453 kts | 158° |
| 2026-05-07 13:31 | 43.76905 | 10.73686 | 36993 ft | 453 kts | 158° |
| 2026-05-07 13:31 | 43.71425 | 10.78023 | 36984 ft | 452 kts | 158° |
| 2026-05-07 13:32 | 43.65962 | 10.82335 | 36982 ft | 452 kts | 158° |
| 2026-05-07 13:32 | 43.60486 | 10.86650 | 36975 ft | 452 kts | 158° |
| 2026-05-07 13:33 | 43.55036 | 10.90936 | 36978 ft | 453 kts | 158° |
| 2026-05-07 13:33 | 43.49562 | 10.95232 | 36974 ft | 452 kts | 158° |
| 2026-05-07 13:34 | 43.41345 | 11.01664 | 36973 ft | 452 kts | 158° |
| 2026-05-07 13:35 | 43.35878 | 11.05931 | 36974 ft | 452 kts | 158° |
| 2026-05-07 13:35 | 43.30381 | 11.10214 | 36979 ft | 452 kts | 158° |
| 2026-05-07 13:36 | 43.24903 | 11.14471 | 36987 ft | 453 kts | 158° |
| 2026-05-07 13:36 | 43.19421 | 11.18723 | 36987 ft | 453 kts | 158° |
| 2026-05-07 13:37 | 43.14571 | 11.22479 | 36983 ft | 453 kts | 158° |
| 2026-05-07 13:37 | 43.09066 | 11.26732 | 36980 ft | 453 kts | 158° |
| 2026-05-07 13:38 | 43.03561 | 11.30976 | 36979 ft | 454 kts | 158° |
| 2026-05-07 13:38 | 42.98032 | 11.35232 | 36988 ft | 454 kts | 158° |
| 2026-05-07 13:39 | 42.92550 | 11.39443 | 36983 ft | 454 kts | 158° |
| 2026-05-07 13:39 | 42.86990 | 11.43704 | 36986 ft | 454 kts | 158° |
| 2026-05-07 13:40 | 42.81474 | 11.47921 | 36987 ft | 454 kts | 158° |
| 2026-05-07 13:40 | 42.75970 | 11.52124 | 36995 ft | 455 kts | 159° |
| 2026-05-07 13:41 | 42.70439 | 11.56336 | 36995 ft | 454 kts | 159° |
| 2026-05-07 13:41 | 42.64923 | 11.60532 | 36988 ft | 454 kts | 159° |
| 2026-05-07 13:42 | 42.59388 | 11.64727 | 36987 ft | 455 kts | 159° |
| 2026-05-07 13:42 | 42.53819 | 11.68943 | 36981 ft | 453 kts | 160° |
| 2026-05-07 13:43 | 42.48312 | 11.73102 | 36986 ft | 453 kts | 160° |
| 2026-05-07 13:43 | 42.42798 | 11.77259 | 36990 ft | 454 kts | 160° |
| 2026-05-07 13:44 | 42.37313 | 11.81387 | 36990 ft | 453 kts | 160° |
| 2026-05-07 13:44 | 42.31780 | 11.85539 | 36987 ft | 454 kts | 160° |
| 2026-05-07 13:45 | 42.26244 | 11.89685 | 36985 ft | 455 kts | 160° |
| 2026-05-07 13:45 | 42.20734 | 11.93807 | 36985 ft | 453 kts | 161° |
| 2026-05-07 13:46 | 42.15165 | 11.97963 | 36985 ft | 456 kts | 161° |
| 2026-05-07 13:46 | 42.09611 | 12.02099 | 36982 ft | 456 kts | 160° |
| 2026-05-07 13:47 | 42.04084 | 12.06213 | 36981 ft | 456 kts | 161° |
| 2026-05-07 13:47 | 41.98521 | 12.10340 | 36977 ft | 456 kts | 161° |
| 2026-05-07 13:48 | 41.92973 | 12.14451 | 36975 ft | 455 kts | 161° |
| 2026-05-07 13:48 | 41.87434 | 12.18545 | 36980 ft | 455 kts | 161° |
| 2026-05-07 13:49 | 41.81858 | 12.22653 | 36980 ft | 457 kts | 162° |
| 2026-05-07 13:49 | 41.76211 | 12.26642 | 36979 ft | 454 kts | 164° |
| 2026-05-07 13:50 | 41.70598 | 12.30426 | 36978 ft | 455 kts | 165° |
| 2026-05-07 13:50 | 41.67772 | 12.32324 | 37236 ft | 456 kts | 165° |
| 2026-05-07 13:50 | 41.64949 | 12.34231 | 37065 ft | 452 kts | 164° |
| 2026-05-07 13:51 | 41.59345 | 12.38018 | 36990 ft | 454 kts | 165° |
| 2026-05-07 13:51 | 41.53725 | 12.41815 | 36973 ft | 450 kts | 165° |
| 2026-05-07 13:52 | 41.48143 | 12.45576 | 36973 ft | 452 kts | 165° |
| 2026-05-07 13:52 | 41.42527 | 12.49352 | 36967 ft | 454 kts | 165° |
| 2026-05-07 13:53 | 41.36851 | 12.53161 | 36964 ft | 457 kts | 165° |
| 2026-05-07 13:53 | 41.31227 | 12.56933 | 36956 ft | 455 kts | 165° |
| 2026-05-07 13:54 | 41.25540 | 12.60739 | 36954 ft | 456 kts | 166° |
| 2026-05-07 13:54 | 41.19879 | 12.64521 | 36949 ft | 457 kts | 166° |
| 2026-05-07 13:55 | 41.14192 | 12.68310 | 36950 ft | 456 kts | 167° |
| 2026-05-07 13:55 | 41.08483 | 12.72107 | 36947 ft | 461 kts | 167° |
| 2026-05-07 13:56 | 41.02773 | 12.75899 | 36943 ft | 458 kts | 167° |
| 2026-05-07 13:56 | 40.97086 | 12.79674 | 36945 ft | 459 kts | 167° |
| 2026-05-07 13:57 | 40.91383 | 12.83450 | 36953 ft | 460 kts | 167° |
| 2026-05-07 13:57 | 40.85666 | 12.87218 | 36942 ft | 463 kts | 167° |
| 2026-05-07 13:58 | 40.79909 | 12.91011 | 36940 ft | 459 kts | 167° |
| 2026-05-07 13:58 | 40.74213 | 12.94767 | 36935 ft | 458 kts | 167° |
| 2026-05-07 13:59 | 40.68499 | 12.98507 | 36943 ft | 459 kts | 167° |
| 2026-05-07 13:59 | 40.62733 | 13.02284 | 36939 ft | 461 kts | 167° |
| 2026-05-07 14:00 | 40.56995 | 13.06037 | 36936 ft | 460 kts | 167° |
| 2026-05-07 14:00 | 40.51217 | 13.09804 | 36941 ft | 460 kts | 167° |
| 2026-05-07 14:01 | 40.45507 | 13.13527 | 36937 ft | 459 kts | 168° |
| 2026-05-07 14:01 | 40.39777 | 13.17254 | 36930 ft | 457 kts | 167° |
| 2026-05-07 14:02 | 40.34096 | 13.20940 | 36939 ft | 457 kts | 168° |
| 2026-05-07 14:02 | 40.28399 | 13.24630 | 36934 ft | 457 kts | 168° |
| 2026-05-07 14:03 | 40.22689 | 13.28313 | 36922 ft | 457 kts | 168° |
| 2026-05-07 14:03 | 40.16985 | 13.31993 | 36929 ft | 459 kts | 168° |
| 2026-05-07 14:04 | 40.11285 | 13.35665 | 36929 ft | 457 kts | 168° |
| 2026-05-07 14:04 | 40.05549 | 13.39354 | 36930 ft | 459 kts | 168° |
| 2026-05-07 14:05 | 39.99827 | 13.43013 | 36930 ft | 460 kts | 168° |
| 2026-05-07 14:05 | 39.94092 | 13.46694 | 36935 ft | 460 kts | 168° |
| 2026-05-07 14:06 | 39.88364 | 13.50355 | 36935 ft | 460 kts | 168° |
| 2026-05-07 14:06 | 39.82630 | 13.54012 | 36930 ft | 458 kts | 167° |
| 2026-05-07 14:07 | 39.76904 | 13.57663 | 36922 ft | 457 kts | 167° |
| 2026-05-07 14:07 | 39.71187 | 13.61292 | 36917 ft | 458 kts | 167° |
| 2026-05-07 14:08 | 39.65464 | 13.64923 | 36930 ft | 461 kts | 167° |
| 2026-05-07 14:08 | 39.59672 | 13.68592 | 36924 ft | 461 kts | 168° |
| 2026-05-07 14:09 | 39.53916 | 13.72234 | 36918 ft | 462 kts | 168° |
| 2026-05-07 14:09 | 39.48150 | 13.75875 | 36921 ft | 462 kts | 168° |
| 2026-05-07 14:10 | 39.42433 | 13.79489 | 36906 ft | 456 kts | 168° |
| 2026-05-07 14:10 | 39.36694 | 13.83015 | 36914 ft | 459 kts | 168° |
| 2026-05-07 14:11 | 39.30956 | 13.86522 | 36906 ft | 458 kts | 168° |
| 2026-05-07 14:11 | 39.25175 | 13.90059 | 36901 ft | 462 kts | 168° |
| 2026-05-07 14:12 | 39.19404 | 13.93588 | 36901 ft | 461 kts | 168° |
| 2026-05-07 14:12 | 39.13616 | 13.97123 | 36882 ft | 461 kts | 168° |
| 2026-05-07 14:12 | 39.10715 | 13.98897 | 36562 ft | 459 kts | 168° |
| 2026-05-07 14:13 | 39.07852 | 14.00642 | 36239 ft | 457 kts | 168° |
| 2026-05-07 14:13 | 39.04983 | 14.02387 | 35912 ft | 455 kts | 168° |
| 2026-05-07 14:13 | 39.02124 | 14.04127 | 35507 ft | 449 kts | 168° |
| 2026-05-07 14:13 | 38.99310 | 14.05839 | 34997 ft | 451 kts | 168° |
| 2026-05-07 14:14 | 38.96471 | 14.07552 | 34366 ft | 453 kts | 168° |
| 2026-05-07 14:14 | 38.93646 | 14.09260 | 33689 ft | 454 kts | 167° |
| 2026-05-07 14:14 | 38.90795 | 14.10987 | 33054 ft | 454 kts | 167° |
| 2026-05-07 14:14 | 38.87918 | 14.12731 | 32388 ft | 453 kts | 166° |
| 2026-05-07 14:15 | 38.85052 | 14.14464 | 31687 ft | 454 kts | 166° |
| 2026-05-07 14:15 | 38.82190 | 14.16191 | 30937 ft | 455 kts | 166° |
| 2026-05-07 14:15 | 38.79328 | 14.17909 | 30222 ft | 456 kts | 166° |
| 2026-05-07 14:15 | 38.76506 | 14.19612 | 29767 ft | 450 kts | 166° |
| 2026-05-07 14:16 | 38.73685 | 14.21318 | 29308 ft | 445 kts | 166° |
| 2026-05-07 14:16 | 38.70913 | 14.22986 | 28831 ft | 440 kts | 166° |
| 2026-05-07 14:16 | 38.68147 | 14.24646 | 28338 ft | 437 kts | 165° |
| 2026-05-07 14:16 | 38.65397 | 14.26290 | 27833 ft | 435 kts | 165° |
| 2026-05-07 14:17 | 38.62675 | 14.27922 | 27352 ft | 431 kts | 164° |
| 2026-05-07 14:17 | 38.59977 | 14.29540 | 26860 ft | 427 kts | 164° |
| 2026-05-07 14:17 | 38.57299 | 14.31142 | 26341 ft | 425 kts | 163° |
| 2026-05-07 14:17 | 38.54630 | 14.32741 | 25856 ft | 421 kts | 163° |
| 2026-05-07 14:18 | 38.51973 | 14.34327 | 25348 ft | 418 kts | 162° |
| 2026-05-07 14:18 | 38.49350 | 14.35897 | 24840 ft | 416 kts | 162° |
| 2026-05-07 14:18 | 38.46749 | 14.37453 | 24341 ft | 413 kts | 162° |
| 2026-05-07 14:18 | 38.44168 | 14.38996 | 23853 ft | 409 kts | 162° |
| 2026-05-07 14:19 | 38.41592 | 14.40532 | 23361 ft | 406 kts | 161° |
| 2026-05-07 14:19 | 38.39067 | 14.42037 | 22888 ft | 403 kts | 161° |
| 2026-05-07 14:19 | 38.36540 | 14.43544 | 22413 ft | 400 kts | 161° |
| 2026-05-07 14:19 | 38.34027 | 14.45041 | 21934 ft | 397 kts | 161° |
| 2026-05-07 14:20 | 38.31523 | 14.46527 | 21450 ft | 395 kts | 161° |
| 2026-05-07 14:20 | 38.29039 | 14.48000 | 20974 ft | 392 kts | 161° |
| 2026-05-07 14:20 | 38.26600 | 14.49447 | 20514 ft | 389 kts | 160° |
| 2026-05-07 14:20 | 38.24139 | 14.50905 | 20034 ft | 388 kts | 161° |
| 2026-05-07 14:21 | 38.21698 | 14.52352 | 19558 ft | 386 kts | 161° |
| 2026-05-07 14:21 | 38.19294 | 14.53775 | 19072 ft | 385 kts | 160° |
| 2026-05-07 14:21 | 38.16858 | 14.55218 | 18594 ft | 383 kts | 160° |
| 2026-05-07 14:21 | 38.14463 | 14.56635 | 18112 ft | 381 kts | 160° |
| 2026-05-07 14:22 | 38.12038 | 14.58070 | 17621 ft | 380 kts | 160° |
| 2026-05-07 14:22 | 38.09669 | 14.59469 | 17138 ft | 378 kts | 160° |
| 2026-05-07 14:22 | 38.07275 | 14.60882 | 16652 ft | 377 kts | 160° |
| 2026-05-07 14:22 | 38.04917 | 14.62273 | 16169 ft | 375 kts | 160° |
| 2026-05-07 14:23 | 38.02538 | 14.63676 | 15680 ft | 374 kts | 159° |
| 2026-05-07 14:23 | 38.00177 | 14.65067 | 15194 ft | 372 kts | 160° |
| 2026-05-07 14:23 | 37.97844 | 14.66441 | 14698 ft | 371 kts | 159° |
| 2026-05-07 14:23 | 37.95496 | 14.67824 | 14201 ft | 369 kts | 159° |
| 2026-05-07 14:24 | 37.93211 | 14.69250 | 13715 ft | 369 kts | 155° |
| 2026-05-07 14:24 | 37.90971 | 14.70894 | 13421 ft | 362 kts | 153° |
| 2026-05-07 14:24 | 37.88857 | 14.72504 | 13254 ft | 350 kts | 152° |
| 2026-05-07 14:24 | 37.86802 | 14.74075 | 13113 ft | 339 kts | 153° |
| 2026-05-07 14:25 | 37.84814 | 14.75591 | 13000 ft | 327 kts | 153° |
| 2026-05-07 14:25 | 37.82892 | 14.77046 | 12869 ft | 317 kts | 153° |
| 2026-05-07 14:25 | 37.81017 | 14.78466 | 12777 ft | 306 kts | 153° |
| 2026-05-07 14:25 | 37.79236 | 14.79816 | 12690 ft | 295 kts | 153° |
| 2026-05-07 14:26 | 37.77441 | 14.81011 | 12461 ft | 286 kts | 166° |
| 2026-05-07 14:26 | 37.75516 | 14.81253 | 12192 ft | 272 kts | 193° |
| 2026-05-07 14:26 | 37.73795 | 14.80397 | 11868 ft | 264 kts | 218° |
| 2026-05-07 14:26 | 37.72543 | 14.78736 | 11517 ft | 261 kts | 236° |
| 2026-05-07 14:27 | 37.71560 | 14.76850 | 11158 ft | 261 kts | 236° |
| 2026-05-07 14:27 | 37.70475 | 14.75012 | 10793 ft | 261 kts | 231° |
| 2026-05-07 14:27 | 37.69266 | 14.73309 | 10448 ft | 261 kts | 226° |
| 2026-05-07 14:27 | 37.67938 | 14.71726 | 10100 ft | 261 kts | 222° |
| 2026-05-07 14:28 | 37.66521 | 14.70274 | 9751 ft | 261 kts | 218° |
| 2026-05-07 14:28 | 37.65046 | 14.68961 | 9405 ft | 261 kts | 214° |
| 2026-05-07 14:28 | 37.63498 | 14.67755 | 9060 ft | 261 kts | 211° |
| 2026-05-07 14:28 | 37.61910 | 14.66674 | 8721 ft | 261 kts | 207° |
| 2026-05-07 14:29 | 37.60257 | 14.65697 | 8377 ft | 261 kts | 204° |
| 2026-05-07 14:29 | 37.58571 | 14.64840 | 8035 ft | 261 kts | 201° |
| 2026-05-07 14:29 | 37.56839 | 14.64091 | 7689 ft | 262 kts | 198° |
| 2026-05-07 14:29 | 37.55094 | 14.63469 | 7350 ft | 262 kts | 195° |
| 2026-05-07 14:30 | 37.53317 | 14.62962 | 7010 ft | 262 kts | 192° |
| 2026-05-07 14:30 | 37.51513 | 14.62569 | 6663 ft | 262 kts | 188° |
| 2026-05-07 14:30 | 37.49721 | 14.62301 | 6325 ft | 262 kts | 185° |
| 2026-05-07 14:30 | 37.47901 | 14.62157 | 5983 ft | 261 kts | 179° |
| 2026-05-07 14:31 | 37.46146 | 14.62733 | 5616 ft | 262 kts | 147° |
| 2026-05-07 14:31 | 37.44928 | 14.64436 | 5279 ft | 263 kts | 122° |
| 2026-05-07 14:31 | 37.44173 | 14.66533 | 4939 ft | 265 kts | 109° |
| 2026-05-07 14:31 | 37.43706 | 14.68778 | 4593 ft | 266 kts | 100° |
| 2026-05-07 14:32 | 37.43618 | 14.71078 | 4293 ft | 266 kts | 88° |
| 2026-05-07 14:32 | 37.43824 | 14.73381 | 4059 ft | 261 kts | 83° |
| 2026-05-07 14:32 | 37.44082 | 14.75609 | 3693 ft | 253 kts | 83° |
| 2026-05-07 14:32 | 37.44299 | 14.77722 | 3326 ft | 245 kts | 84° |
| 2026-05-07 14:33 | 37.44485 | 14.79822 | 3029 ft | 238 kts | 85° |
| 2026-05-07 14:33 | 37.44651 | 14.81855 | 2974 ft | 226 kts | 85° |
| 2026-05-07 14:33 | 37.44801 | 14.83763 | 2968 ft | 213 kts | 85° |
| 2026-05-07 14:33 | 37.44941 | 14.85539 | 2946 ft | 196 kts | 85° |
| 2026-05-07 14:34 | 37.45072 | 14.87178 | 2812 ft | 183 kts | 85° |
| 2026-05-07 14:34 | 37.45195 | 14.88708 | 2652 ft | 169 kts | 85° |
| 2026-05-07 14:34 | 37.45311 | 14.90145 | 2398 ft | 161 kts | 85° |
| 2026-05-07 14:34 | 37.45422 | 14.91513 | 2162 ft | 153 kts | 85° |
| 2026-05-07 14:35 | 37.45528 | 14.92809 | 1958 ft | 143 kts | 85° |
| 2026-05-07 14:35 | 37.45626 | 14.94018 | 1766 ft | 132 kts | 84° |
| 2026-05-07 14:35 | 37.45718 | 14.95133 | 1600 ft | 128 kts | 84° |
| 2026-05-07 14:35 | 37.45810 | 14.96250 | 1443 ft | 128 kts | 84° |
| 2026-05-07 14:36 | 37.45902 | 14.97365 | 1294 ft | 127 kts | 83° |
| 2026-05-07 14:36 | 37.45993 | 14.98480 | 1133 ft | 126 kts | 82° |
| 2026-05-07 14:36 | 37.46077 | 14.99585 | 983 ft | 126 kts | 82° |
| 2026-05-07 14:36 | 37.46169 | 15.00686 | 803 ft | 125 kts | 81° |
| 2026-05-07 14:37 | 37.46267 | 15.01786 | 630 ft | 125 kts | 80° |
| 2026-05-07 14:37 | 37.46444 | 15.03962 | 310 ft | 123 kts | 79° |
| 2026-05-07 14:37 | 37.46537 | 15.05026 | 141 ft | 122 kts | 79° |
| 2026-05-07 14:38 | 37.46632 | 15.06086 | 39 ft | 113 kts | 83° |
| 2026-05-07 14:38 | 37.46688 | 15.06742 | 30 ft | 45 kts | 84° |
| 2026-05-07 14:38 | 37.46715 | 15.06926 | 31 ft | 9 kts | 44° |
| 2026-05-07 14:38 | 37.46770 | 15.06919 | 30 ft | 8 kts | 337° |
| 2026-05-07 14:39 | 37.46812 | 15.06896 | 29 ft | 6 kts | 337° |
| 2026-05-07 14:39 | 37.46851 | 15.06867 | 28 ft | 6 kts | 307° |
| 2026-05-07 14:39 | 37.46857 | 15.06798 | 29 ft | 12 kts | 263° |
| 2026-05-07 14:39 | 37.46847 | 15.06682 | 30 ft | 14 kts | 265° |
| 2026-05-07 14:40 | 37.46836 | 15.06547 | 29 ft | 12 kts | 264° |
| 2026-05-07 14:40 | 37.46847 | 15.06489 | 28 ft | 4 kts | 322° |
| 2026-05-07 14:40 | 37.46851 | 15.06485 | 28 ft | 0 kts | 321° |
| 2026-05-07 14:41 | 37.46860 | 15.06476 | 29 ft | 4 kts | 322° |
| 2026-05-07 14:41 | 37.46878 | 15.06458 | 30 ft | 2 kts | 323° |
| 2026-05-07 14:41 | 37.46902 | 15.06448 | 31 ft | 5 kts | 12° |
| 2026-05-07 14:41 | 37.46949 | 15.06469 | 34 ft | 5 kts | 19° |
| 2026-05-07 14:42 | 37.46961 | 15.06474 | 34 ft | 0 kts | 19° |